createdAt,value
2023-09-01T00:00:58.515Z,2.85
2023-09-01T00:02:00.079Z,3.30
2023-09-01T00:03:01.793Z,2.45
2023-09-01T00:04:03.501Z,2.53
2023-09-01T00:05:05.233Z,2.30
2023-09-01T00:06:12.028Z,2.45
2023-09-01T00:07:13.569Z,2.63
2023-09-01T00:08:15.533Z,2.47
2023-09-01T00:09:17.369Z,2.70
2023-09-01T00:10:18.883Z,2.92
2023-09-01T00:11:20.380Z,3.10
2023-09-01T00:12:22.112Z,2.45
2023-09-01T00:13:23.724Z,2.85
2023-09-01T00:14:25.318Z,3.30
2023-09-01T00:15:26.863Z,2.45
2023-09-01T00:16:28.488Z,2.70
2023-09-01T00:17:30.663Z,2.50
2023-09-01T00:18:32.401Z,2.55
2023-09-01T00:19:33.897Z,2.60
2023-09-01T00:20:35.423Z,2.30
2023-09-01T00:21:36.942Z,2.88
2023-09-01T00:22:38.495Z,3.63
2023-09-01T00:23:40.125Z,2.65
2023-09-01T00:24:41.710Z,2.57
2023-09-01T00:25:43.194Z,2.60
2023-09-01T00:26:44.676Z,3.00
2023-09-01T00:27:46.166Z,2.60
2023-09-01T00:28:47.739Z,2.28
2023-09-01T00:29:49.344Z,2.40
2023-09-01T00:30:51.953Z,2.60
2023-09-01T00:31:53.569Z,2.78
2023-09-01T00:32:55.155Z,2.60
2023-09-01T00:33:56.830Z,2.80
2023-09-01T00:34:58.506Z,3.10
2023-09-01T00:36:00.378Z,2.30
2023-09-01T00:37:01.942Z,2.53
2023-09-01T00:38:03.597Z,2.75
2023-09-01T00:39:05.241Z,2.63
2023-09-01T00:40:07.141Z,2.38
2023-09-01T00:41:08.628Z,2.28
2023-09-01T00:42:10.157Z,2.30
2023-09-01T00:43:11.721Z,2.20
2023-09-01T00:44:13.309Z,2.53
2023-09-01T00:45:14.823Z,2.90
2023-09-01T00:46:16.551Z,2.10
2023-09-01T00:47:18.181Z,2.45
2023-09-01T00:48:20.205Z,2.60
2023-09-01T00:49:22.138Z,2.80
2023-09-01T00:50:23.795Z,2.78
2023-09-01T00:51:26.196Z,2.35
2023-09-01T00:52:27.733Z,2.50
2023-09-01T00:53:29.381Z,2.30
2023-09-01T00:54:31.052Z,2.63
2023-09-01T00:55:33.203Z,2.47
2023-09-01T00:56:34.727Z,2.70
2023-09-01T00:57:36.273Z,2.80
2023-09-01T00:58:37.742Z,2.63
2023-09-01T00:59:39.429Z,2.80
2023-09-01T01:00:40.955Z,3.22
2023-09-01T01:01:43.499Z,2.22
2023-09-01T01:02:46.032Z,2.75
2023-09-01T01:03:48.109Z,2.63
2023-09-01T01:04:49.669Z,2.95
2023-09-01T01:05:57.372Z,2.43
2023-09-01T01:07:19.988Z,2.72
2023-09-01T01:08:21.465Z,2.78
2023-09-01T01:09:28.844Z,2.25
2023-09-01T01:10:33.488Z,2.50
2023-09-01T01:11:55.274Z,2.38
2023-09-01T01:13:11.993Z,2.60
2023-09-01T01:14:20.440Z,2.50
2023-09-01T01:15:22.521Z,2.75
2023-09-01T01:16:24.557Z,2.35
2023-09-01T01:17:26.346Z,2.80
2023-09-01T01:18:29.906Z,2.60
2023-09-01T01:19:43.481Z,2.63
2023-09-01T01:20:47.665Z,2.55
2023-09-01T01:21:51.868Z,2.40
2023-09-01T01:23:08.557Z,2.00
2023-09-01T01:24:10.274Z,2.10
2023-09-01T01:25:12.650Z,2.05
2023-09-01T01:26:14.829Z,2.50
2023-09-01T01:27:19.396Z,2.30
2023-09-01T01:28:21.660Z,2.00
2023-09-01T01:29:23.206Z,2.38
2023-09-01T01:30:24.783Z,2.33
2023-09-01T01:31:26.352Z,2.22
2023-09-01T01:32:28.590Z,2.33
2023-09-01T01:33:35.928Z,2.22
2023-09-01T01:34:37.710Z,1.88
2023-09-01T01:35:43.735Z,2.55
2023-09-01T01:36:49.250Z,2.13
2023-09-01T01:37:50.764Z,2.13
2023-09-01T01:39:03.592Z,3.00
2023-09-01T01:40:06.933Z,2.85
2023-09-01T01:41:34.447Z,2.78
2023-09-01T01:42:37.719Z,2.40
2023-09-01T01:43:40.345Z,2.30
2023-09-01T01:44:44.254Z,2.22
2023-09-01T01:45:46.499Z,2.30
2023-09-01T01:46:48.354Z,2.38
2023-09-01T01:47:50.673Z,3.03
2023-09-01T01:48:52.243Z,2.78
2023-09-01T01:49:53.734Z,2.67
2023-09-01T01:50:55.221Z,2.20
2023-09-01T01:51:56.717Z,2.88
2023-09-01T01:52:58.192Z,2.72
2023-09-01T01:53:59.750Z,2.88
2023-09-01T01:55:01.247Z,2.92
2023-09-01T01:56:03.425Z,2.50
2023-09-01T01:57:05.092Z,2.75
2023-09-01T01:58:06.651Z,2.80
2023-09-01T01:59:08.151Z,2.50
2023-09-01T02:03:00.056Z,2.22
2023-09-01T02:04:01.625Z,2.03
2023-09-01T02:05:03.246Z,3.03
2023-09-01T02:06:04.798Z,2.50
2023-09-01T02:07:06.349Z,2.70
2023-09-01T02:08:07.923Z,2.90
2023-09-01T02:09:09.452Z,2.85
2023-09-01T02:10:10.936Z,2.60
2023-09-01T02:11:12.509Z,2.70
2023-09-01T02:12:14.079Z,2.60
2023-09-01T02:13:15.692Z,2.63
2023-09-01T02:14:17.230Z,3.05
2023-09-01T02:15:18.793Z,2.63
2023-09-01T02:16:20.315Z,2.92
2023-09-01T02:17:21.856Z,2.70
2023-09-01T02:18:23.536Z,2.30
2023-09-01T02:19:27.940Z,3.08
2023-09-01T02:20:29.469Z,2.58
2023-09-01T02:21:30.950Z,2.70
2023-09-01T02:22:32.505Z,2.65
2023-09-01T02:23:34.048Z,2.70
2023-09-01T02:24:35.605Z,2.80
2023-09-01T02:25:37.860Z,2.50
2023-09-01T02:26:39.362Z,3.00
2023-09-01T02:27:41.383Z,2.67
2023-09-01T02:28:42.978Z,2.85
2023-09-01T02:29:44.552Z,3.10
2023-09-01T02:30:46.131Z,2.95
2023-09-01T02:31:47.697Z,2.57
2023-09-01T02:32:49.376Z,3.28
2023-09-01T02:33:50.982Z,2.60
2023-09-01T02:34:52.536Z,2.88
2023-09-01T02:36:14.121Z,3.28
2023-09-01T02:37:15.786Z,2.85
2023-09-01T02:38:17.590Z,3.08
2023-09-01T02:39:19.313Z,2.83
2023-09-01T02:40:20.915Z,2.78
2023-09-01T02:41:23.735Z,2.70
2023-09-01T02:42:25.246Z,2.77
2023-09-01T02:43:26.772Z,3.00
2023-09-01T02:44:28.384Z,2.65
2023-09-01T02:45:30.046Z,2.55
2023-09-01T02:46:31.713Z,2.85
2023-09-01T02:47:33.375Z,2.47
2023-09-01T02:48:34.926Z,2.30
2023-09-01T02:49:36.452Z,2.83
2023-09-01T02:50:37.984Z,3.03
2023-09-01T02:51:39.484Z,2.85
2023-09-01T02:52:41.082Z,2.67
2023-09-01T02:53:42.633Z,2.97
2023-09-01T02:54:44.300Z,2.65
2023-09-01T02:55:45.825Z,2.22
2023-09-01T02:56:47.374Z,3.00
2023-09-01T02:57:48.874Z,2.55
2023-09-01T02:58:50.416Z,2.50
2023-09-01T02:59:52.363Z,2.40
2023-09-01T03:00:54.189Z,2.63
2023-09-01T03:01:55.784Z,2.72
2023-09-01T03:02:57.409Z,2.20
2023-09-01T03:03:58.990Z,2.17
2023-09-01T03:05:00.541Z,2.35
2023-09-01T03:06:02.122Z,2.35
2023-09-01T03:07:03.770Z,2.17
2023-09-01T03:08:06.621Z,2.58
2023-09-01T03:09:08.209Z,2.65
2023-09-01T03:10:09.901Z,2.17
2023-09-01T03:11:11.455Z,2.67
2023-09-01T03:12:12.995Z,2.05
2023-09-01T03:13:14.660Z,2.07
2023-09-01T03:14:16.205Z,2.30
2023-09-01T03:15:17.761Z,2.50
2023-09-01T03:16:19.268Z,2.85
2023-09-01T03:17:20.870Z,2.53
2023-09-01T03:18:22.869Z,2.50
2023-09-01T03:19:24.652Z,2.72
2023-09-01T03:20:26.252Z,2.60
2023-09-01T03:21:28.006Z,2.67
2023-09-01T03:22:29.556Z,2.15
2023-09-01T03:23:31.097Z,2.50
2023-09-01T03:24:32.915Z,2.65
2023-09-01T03:25:34.506Z,2.50
2023-09-01T03:26:36.033Z,1.98
2023-09-01T03:27:38.047Z,2.15
2023-09-01T03:28:39.938Z,2.60
2023-09-01T03:29:41.412Z,2.60
2023-09-01T03:30:42.923Z,2.80
2023-09-01T03:31:44.576Z,2.80
2023-09-01T03:32:46.281Z,2.40
2023-09-01T03:33:47.845Z,2.67
2023-09-01T03:34:49.473Z,2.17
2023-09-01T03:35:50.977Z,2.65
2023-09-01T03:36:52.517Z,2.40
2023-09-01T03:37:54.023Z,2.83
2023-09-01T03:38:56.136Z,2.50
2023-09-01T03:39:57.659Z,2.83
2023-09-01T03:41:01.661Z,2.10
2023-09-01T03:42:03.193Z,2.63
2023-09-01T03:43:06.372Z,3.10
2023-09-01T03:44:07.877Z,3.30
2023-09-01T03:45:09.665Z,2.92
2023-09-01T03:46:11.367Z,2.95
2023-09-01T03:47:13.768Z,3.72
2023-09-01T03:48:15.814Z,3.17
2023-09-01T03:49:17.635Z,2.85
2023-09-01T03:50:19.585Z,2.60
2023-09-01T03:51:21.377Z,2.67
2023-09-01T03:52:22.936Z,3.13
2023-09-01T03:53:25.006Z,2.40
2023-09-01T03:54:26.517Z,3.20
2023-09-01T03:55:28.003Z,2.70
2023-09-01T03:56:29.537Z,2.92
2023-09-01T03:57:31.062Z,3.00
2023-09-01T03:58:32.582Z,2.95
2023-09-01T03:59:34.154Z,3.15
2023-09-01T04:00:35.690Z,2.90
2023-09-01T04:01:37.279Z,2.65
2023-09-01T04:02:38.999Z,3.40
2023-09-01T04:03:40.917Z,2.80
2023-09-01T04:04:42.521Z,3.10
2023-09-01T04:05:44.187Z,3.10
2023-09-01T04:06:46.280Z,3.13
2023-09-01T04:07:47.855Z,3.45
2023-09-01T04:08:49.396Z,3.55
2023-09-01T04:09:50.933Z,3.33
2023-09-01T04:10:52.423Z,3.00
2023-09-01T04:11:53.940Z,3.80
2023-09-01T04:12:55.408Z,4.60
2023-09-01T04:13:56.988Z,4.18
2023-09-01T04:14:58.572Z,3.33
2023-09-01T04:16:00.595Z,3.30
2023-09-01T04:17:02.167Z,3.85
2023-09-01T04:18:03.930Z,4.30
2023-09-01T04:19:05.527Z,3.55
2023-09-01T04:20:07.320Z,3.25
2023-09-01T04:21:08.854Z,4.15
2023-09-01T04:22:10.417Z,2.78
2023-09-01T04:23:11.908Z,2.65
2023-09-01T04:24:13.535Z,2.30
2023-09-01T04:25:15.202Z,2.47
2023-09-01T04:26:16.749Z,2.50
2023-09-01T04:27:18.245Z,2.90
2023-09-01T04:28:19.773Z,2.35
2023-09-01T04:29:21.294Z,2.65
2023-09-01T04:30:22.800Z,2.55
2023-09-01T04:31:28.072Z,2.85
2023-09-01T04:32:29.714Z,2.88
2023-09-01T04:33:31.282Z,2.80
2023-09-01T04:34:32.795Z,2.80
2023-09-01T04:35:34.452Z,3.20
2023-09-01T04:36:46.481Z,2.40
2023-09-01T04:37:48.394Z,2.80
2023-09-01T04:38:50.130Z,2.65
2023-09-01T04:39:51.815Z,2.58
2023-09-01T04:40:56.617Z,2.58
2023-09-01T04:41:58.152Z,3.38
2023-09-01T04:42:59.748Z,6.88
2023-09-01T04:44:01.295Z,9.35
2023-09-01T04:45:02.872Z,6.97
2023-09-01T04:46:04.465Z,4.10
2023-09-01T04:47:05.989Z,2.90
2023-09-01T04:48:07.577Z,2.92
2023-09-01T04:49:09.188Z,2.40
2023-09-01T04:50:10.906Z,2.30
2023-09-01T04:51:12.453Z,2.35
2023-09-01T04:52:14.027Z,2.80
2023-09-01T04:53:15.905Z,2.40
2023-09-01T04:54:17.389Z,2.90
2023-09-01T04:55:18.991Z,2.65
2023-09-01T04:56:20.586Z,2.50
2023-09-01T04:57:22.145Z,2.58
2023-09-01T04:58:23.829Z,2.58
2023-09-01T04:59:25.373Z,2.97
2023-09-01T05:00:26.960Z,2.40
2023-09-01T05:01:28.557Z,2.88
2023-09-01T05:02:30.230Z,2.97
2023-09-01T05:03:31.777Z,2.80
2023-09-01T05:04:33.276Z,2.72
2023-09-01T05:05:34.853Z,2.47
2023-09-01T05:06:36.434Z,2.60
2023-09-01T05:07:38.115Z,2.20
2023-09-01T05:08:39.637Z,2.75
2023-09-01T05:09:41.255Z,2.55
2023-09-01T05:10:42.754Z,2.28
2023-09-01T05:11:44.290Z,3.05
2023-09-01T05:12:46.063Z,2.70
2023-09-01T05:13:47.632Z,2.67
2023-09-01T05:14:49.152Z,2.50
2023-09-01T05:15:50.672Z,2.08
2023-09-01T05:16:52.304Z,2.50
2023-09-01T05:17:53.917Z,2.58
2023-09-01T05:18:55.538Z,2.50
2023-09-01T05:19:58.009Z,2.95
2023-09-01T05:20:59.674Z,2.50
2023-09-01T05:22:01.255Z,2.90
2023-09-01T05:23:02.881Z,2.60
2023-09-01T05:24:04.678Z,2.80
2023-09-01T05:25:06.761Z,2.75
2023-09-01T05:26:08.293Z,2.65
2023-09-01T05:27:10.127Z,2.90
2023-09-01T05:28:11.691Z,2.72
2023-09-01T05:29:13.262Z,2.60
2023-09-01T05:30:15.009Z,2.65
2023-09-01T05:31:16.646Z,2.42
2023-09-01T05:32:18.610Z,2.80
2023-09-01T05:33:20.197Z,3.00
2023-09-01T05:34:21.771Z,2.65
2023-09-01T05:35:23.277Z,2.83
2023-09-01T05:36:24.801Z,2.58
2023-09-01T05:37:26.568Z,2.80
2023-09-01T05:38:28.153Z,2.63
2023-09-01T05:39:29.729Z,3.08
2023-09-01T05:40:31.284Z,2.58
2023-09-01T05:41:32.854Z,2.65
2023-09-01T05:42:34.467Z,2.72
2023-09-01T05:43:35.974Z,2.70
2023-09-01T05:44:38.088Z,2.60
2023-09-01T05:45:39.876Z,2.80
2023-09-01T05:46:41.475Z,2.80
2023-09-01T05:47:43.153Z,2.60
2023-09-01T05:48:44.737Z,2.60
2023-09-01T05:49:46.454Z,3.05
2023-09-01T05:50:48.021Z,2.30
2023-09-01T05:51:49.539Z,2.40
2023-09-01T05:52:51.058Z,2.70
2023-09-01T05:53:52.683Z,2.97
2023-09-01T05:54:54.173Z,2.90
2023-09-01T05:55:55.846Z,2.70
2023-09-01T05:56:57.367Z,2.92
2023-09-01T05:57:59.006Z,2.70
2023-09-01T05:59:00.629Z,2.97
2023-09-01T06:00:02.138Z,2.78
2023-09-01T06:01:03.771Z,2.65
2023-09-01T06:02:05.393Z,2.60
2023-09-01T06:03:07.141Z,2.53
2023-09-01T06:04:08.701Z,2.92
2023-09-01T06:05:10.220Z,2.70
2023-09-01T06:06:11.693Z,3.00
2023-09-01T06:07:13.221Z,3.45
2023-09-01T06:08:14.973Z,3.77
2023-09-01T06:09:16.706Z,3.42
2023-09-01T06:10:18.241Z,3.58
2023-09-01T06:11:19.729Z,3.72
2023-09-01T06:12:21.200Z,3.28
2023-09-01T06:13:22.749Z,2.90
2023-09-01T06:14:24.285Z,2.70
2023-09-01T06:15:25.730Z,2.95
2023-09-01T06:16:27.230Z,3.20
2023-09-01T06:17:44.035Z,2.40
2023-09-01T06:18:47.454Z,3.10
2023-09-01T06:19:49.025Z,2.88
2023-09-01T06:20:50.655Z,3.10
2023-09-01T06:21:52.162Z,3.63
2023-09-01T06:22:53.619Z,3.08
2023-09-01T06:23:55.180Z,3.30
2023-09-01T06:24:56.794Z,3.25
2023-09-01T06:25:58.406Z,3.17
2023-09-01T06:26:59.922Z,3.35
2023-09-01T06:28:01.402Z,3.60
2023-09-01T06:29:03.005Z,3.20
2023-09-01T06:30:07.668Z,2.78
2023-09-01T06:31:09.458Z,2.92
2023-09-01T06:32:11.117Z,2.85
2023-09-01T06:33:12.661Z,2.60
2023-09-01T06:34:14.229Z,2.70
2023-09-01T06:35:16.295Z,2.85
2023-09-01T06:36:17.932Z,3.10
2023-09-01T06:37:19.757Z,2.70
2023-09-01T06:38:21.296Z,2.85
2023-09-01T06:39:22.850Z,3.23
2023-09-01T06:40:24.399Z,2.80
2023-09-01T06:41:25.981Z,2.95
2023-09-01T06:42:27.699Z,3.03
2023-09-01T06:43:29.317Z,3.10
2023-09-01T06:44:31.007Z,3.28
2023-09-01T06:45:32.562Z,3.20
2023-09-01T06:46:34.203Z,3.08
2023-09-01T06:47:35.866Z,3.78
2023-09-01T06:48:37.713Z,2.90
2023-09-01T06:49:39.297Z,3.10
2023-09-01T06:50:41.217Z,3.05
2023-09-01T06:51:43.899Z,3.42
2023-09-01T06:52:45.709Z,3.10
2023-09-01T06:53:47.318Z,3.10
2023-09-01T06:54:48.850Z,3.22
2023-09-01T06:55:50.563Z,3.40
2023-09-01T06:56:52.225Z,3.03
2023-09-01T06:57:53.893Z,2.30
2023-09-01T06:58:55.587Z,2.97
2023-09-01T06:59:58.234Z,2.93
2023-09-01T07:01:06.924Z,3.60
2023-09-01T07:02:08.653Z,3.15
2023-09-01T07:03:10.356Z,3.22
2023-09-01T07:04:12.012Z,3.65
2023-09-01T07:05:13.682Z,3.08
2023-09-01T07:06:15.503Z,3.45
2023-09-01T07:07:17.084Z,3.20
2023-09-01T07:08:18.723Z,2.97
2023-09-01T07:09:20.434Z,2.47
2023-09-01T07:10:22.137Z,3.20
2023-09-01T07:11:23.660Z,2.92
2023-09-01T07:12:25.284Z,3.25
2023-09-01T07:13:26.952Z,3.08
2023-09-01T07:14:28.616Z,3.35
2023-09-01T07:15:30.347Z,2.50
2023-09-01T07:16:31.999Z,3.20
2023-09-01T07:17:33.786Z,3.13
2023-09-01T07:18:35.916Z,3.22
2023-09-01T07:19:37.499Z,3.03
2023-09-01T07:20:39.137Z,2.97
2023-09-01T07:21:40.717Z,3.35
2023-09-01T07:22:42.217Z,3.10
2023-09-01T07:23:43.779Z,3.10
2023-09-01T07:24:46.863Z,3.88
2023-09-01T07:25:48.598Z,2.95
2023-09-01T07:26:50.186Z,3.17
2023-09-01T07:27:51.778Z,3.40
2023-09-01T07:28:53.312Z,3.65
2023-09-01T07:29:54.868Z,3.30
2023-09-01T07:30:56.377Z,4.10
2023-09-01T07:31:57.829Z,3.15
2023-09-01T07:32:59.881Z,2.72
2023-09-01T07:34:01.473Z,3.30
2023-09-01T07:35:02.994Z,3.45
2023-09-01T07:36:04.819Z,3.17
2023-09-01T07:37:06.351Z,2.75
2023-09-01T07:38:07.940Z,3.10
2023-09-01T07:39:09.447Z,2.95
2023-09-01T07:40:11.180Z,3.00
2023-09-01T07:41:12.713Z,2.73
2023-09-01T07:42:14.205Z,3.13
2023-09-01T07:43:15.775Z,2.97
2023-09-01T07:44:17.312Z,3.28
2023-09-01T07:45:19.287Z,3.13
2023-09-01T07:46:20.956Z,3.08
2023-09-01T07:47:22.516Z,3.28
2023-09-01T07:48:24.214Z,3.13
2023-09-01T07:49:25.859Z,3.30
2023-09-01T07:50:27.526Z,2.75
2023-09-01T07:51:29.155Z,3.00
2023-09-01T07:52:30.865Z,2.63
2023-09-01T07:53:32.543Z,3.03
2023-09-01T07:54:34.229Z,3.45
2023-09-01T07:55:36.022Z,2.95
2023-09-01T07:56:37.623Z,2.70
2023-09-01T07:57:40.444Z,3.28
2023-09-01T07:58:43.807Z,2.72
2023-09-01T07:59:45.509Z,3.40
2023-09-01T08:00:47.254Z,2.70
2023-09-01T08:01:48.962Z,2.93
2023-09-01T08:02:51.919Z,2.50
2023-09-01T08:03:55.039Z,3.20
2023-09-01T08:04:56.822Z,3.25
2023-09-01T08:05:59.700Z,2.88
2023-09-01T08:07:01.243Z,2.60
2023-09-01T08:08:03.027Z,3.33
2023-09-01T08:09:05.018Z,3.30
2023-09-01T08:10:06.873Z,3.00
2023-09-01T08:11:08.650Z,3.03
2023-09-01T08:12:10.212Z,3.43
2023-09-01T08:13:11.941Z,3.10
2023-09-01T08:14:13.775Z,3.45
2023-09-01T08:15:15.427Z,3.42
2023-09-01T08:16:17.065Z,3.38
2023-09-01T08:17:18.790Z,3.28
2023-09-01T08:18:20.598Z,3.42
2023-09-01T08:19:22.523Z,3.58
2023-09-01T08:20:24.166Z,3.72
2023-09-01T08:21:25.918Z,3.70
2023-09-01T08:22:27.554Z,3.83
2023-09-01T08:23:29.239Z,3.63
2023-09-01T08:24:31.020Z,3.28
2023-09-01T08:25:32.715Z,3.65
2023-09-01T08:26:34.905Z,3.13
2023-09-01T08:27:36.493Z,3.88
2023-09-01T08:28:38.101Z,3.70
2023-09-01T08:29:39.809Z,3.10
2023-09-01T08:30:41.673Z,3.92
2023-09-01T08:31:43.731Z,3.50
2023-09-01T08:32:45.387Z,3.77
2023-09-01T08:33:47.073Z,3.67
2023-09-01T08:34:48.671Z,3.78
2023-09-01T08:35:50.191Z,3.55
2023-09-01T08:36:51.724Z,3.55
2023-09-01T08:37:53.274Z,3.97
2023-09-01T08:38:54.877Z,3.40
2023-09-01T08:39:56.503Z,4.10
2023-09-01T08:41:01.722Z,3.47
2023-09-01T08:42:03.586Z,3.50
2023-09-01T08:43:05.527Z,3.87
2023-09-01T08:44:07.146Z,3.42
2023-09-01T08:45:09.114Z,3.40
2023-09-01T08:46:15.036Z,3.20
2023-09-01T08:47:19.741Z,3.55
2023-09-01T08:48:21.265Z,3.78
2023-09-01T08:49:23.908Z,4.25
2023-09-01T08:50:25.408Z,3.40
2023-09-01T08:51:26.982Z,4.15
2023-09-01T08:52:29.084Z,2.90
2023-09-01T08:53:30.792Z,3.80
2023-09-01T08:54:32.383Z,3.58
2023-09-01T08:55:33.886Z,3.53
2023-09-01T08:56:35.720Z,3.75
2023-09-01T08:57:37.410Z,4.28
2023-09-01T08:58:39.014Z,3.30
2023-09-01T08:59:40.537Z,3.88
2023-09-01T09:00:42.028Z,3.67
2023-09-01T09:01:43.671Z,3.47
2023-09-01T09:02:56.915Z,3.28
2023-09-01T09:04:07.659Z,3.90
2023-09-01T09:05:21.565Z,3.60
2023-09-01T09:06:39.481Z,3.92
2023-09-01T09:07:41.261Z,3.75
2023-09-01T09:08:43.229Z,3.70
2023-09-01T09:09:54.730Z,3.72
2023-09-01T09:10:56.394Z,3.55
2023-09-01T09:11:58.689Z,3.90
2023-09-01T09:13:00.413Z,3.95
2023-09-01T09:14:09.829Z,3.60
2023-09-01T09:15:18.350Z,3.97
2023-09-01T09:16:19.983Z,3.90
2023-09-01T09:17:22.315Z,3.60
2023-09-01T09:18:30.361Z,4.10
2023-09-01T09:19:32.353Z,4.22
2023-09-01T09:20:38.339Z,4.10
2023-09-01T09:21:40.102Z,4.05
2023-09-01T09:22:50.653Z,3.60
2023-09-01T09:23:58.055Z,3.90
2023-09-01T09:25:06.840Z,3.60
2023-09-01T09:26:08.518Z,3.80
2023-09-01T09:27:16.302Z,3.65
2023-09-01T09:28:18.288Z,3.75
2023-09-01T09:29:20.175Z,3.97
2023-09-01T09:30:21.860Z,4.15
2023-09-01T09:31:32.707Z,3.83
2023-09-01T09:32:34.272Z,3.88
2023-09-01T09:33:36.191Z,3.67
2023-09-01T09:34:37.692Z,3.40
2023-09-01T09:35:49.313Z,3.70
2023-09-01T09:36:51.084Z,4.10
2023-09-01T09:37:56.998Z,3.90
2023-09-01T09:38:58.566Z,4.15
2023-09-01T09:40:26.567Z,3.53
2023-09-01T09:41:28.122Z,3.78
2023-09-01T09:42:36.866Z,3.92
2023-09-01T09:43:45.753Z,4.25
2023-09-01T09:44:47.390Z,3.60
2023-09-01T09:45:49.069Z,3.63
2023-09-01T09:46:50.999Z,4.10
2023-09-01T09:47:52.654Z,3.77
2023-09-01T09:48:54.591Z,3.75
2023-09-01T09:49:56.404Z,4.25
2023-09-01T09:50:58.161Z,4.20
2023-09-01T09:52:01.179Z,3.70
2023-09-01T09:53:06.565Z,3.83
2023-09-01T09:54:10.743Z,4.00
2023-09-01T09:55:13.687Z,3.83
2023-09-01T09:56:30.288Z,3.88
2023-09-01T09:57:32.639Z,3.88
2023-09-01T09:58:40.549Z,4.57
2023-09-01T09:59:56.674Z,4.30
2023-09-01T10:01:13.376Z,3.83
2023-09-01T10:02:26.622Z,3.55
2023-09-01T10:03:31.353Z,3.90
2023-09-01T10:04:35.407Z,3.33
2023-09-01T10:05:37.930Z,3.65
2023-09-01T10:06:41.182Z,3.80
2023-09-01T10:07:44.025Z,3.70
2023-09-01T10:08:46.179Z,3.83
2023-09-01T10:09:47.824Z,3.80
2023-09-01T10:10:49.506Z,3.63
2023-09-01T10:11:51.341Z,3.83
2023-09-01T10:12:54.372Z,3.80
2023-09-01T10:13:57.066Z,3.30
2023-09-01T10:14:59.126Z,3.70
2023-09-01T10:16:01.210Z,3.85
2023-09-01T10:17:03.161Z,3.30
2023-09-01T10:18:06.137Z,3.60
2023-09-01T10:19:10.463Z,3.40
2023-09-01T10:20:12.184Z,3.53
2023-09-01T10:21:14.018Z,3.80
2023-09-01T10:22:19.417Z,3.70
2023-09-01T10:23:21.247Z,4.40
2023-09-01T10:24:22.848Z,3.70
2023-09-01T10:25:24.464Z,3.40
2023-09-01T10:26:26.220Z,3.45
2023-09-01T10:27:28.429Z,3.53
2023-09-01T10:28:30.464Z,3.85
2023-09-01T10:29:32.025Z,4.07
2023-09-01T10:30:33.679Z,3.63
2023-09-01T10:31:36.598Z,3.72
2023-09-01T10:32:38.346Z,3.88
2023-09-01T10:33:40.148Z,3.83
2023-09-01T10:34:41.814Z,3.72
2023-09-01T10:35:44.783Z,3.50
2023-09-01T10:36:46.858Z,3.88
2023-09-01T10:38:08.440Z,3.55
2023-09-01T10:39:19.253Z,3.35
2023-09-01T10:40:42.471Z,3.60
2023-09-01T10:41:51.610Z,3.07
2023-09-01T10:42:53.267Z,3.50
2023-09-01T10:43:55.010Z,3.47
2023-09-01T10:45:06.037Z,3.50
2023-09-01T10:46:13.791Z,3.42
2023-09-01T10:47:33.793Z,3.35
2023-09-01T10:48:54.212Z,3.40
2023-09-01T10:49:56.455Z,3.15
2023-09-01T10:51:18.113Z,3.88
2023-09-01T10:52:19.728Z,3.08
2023-09-01T10:53:34.689Z,3.90
2023-09-01T10:54:37.086Z,3.15
2023-09-01T10:55:57.432Z,3.40
2023-09-01T10:56:59.929Z,3.25
2023-09-01T10:58:08.880Z,3.20
2023-09-01T10:59:10.373Z,3.70
2023-09-01T11:00:27.996Z,3.20
2023-09-01T11:01:47.413Z,3.67
2023-09-01T11:02:49.542Z,3.38
2023-09-01T11:03:51.145Z,3.47
2023-09-01T11:04:52.679Z,3.77
2023-09-01T11:05:57.652Z,3.42
2023-09-01T11:06:59.170Z,3.63
2023-09-01T11:08:14.288Z,3.33
2023-09-01T11:09:16.053Z,3.05
2023-09-01T11:10:26.805Z,3.80
2023-09-01T11:11:29.122Z,3.97
2023-09-01T11:12:31.077Z,3.50
2023-09-01T11:13:32.673Z,3.10
2023-09-01T11:14:34.883Z,3.35
2023-09-01T11:15:43.176Z,3.43
2023-09-01T11:16:45.412Z,3.20
2023-09-01T11:17:47.083Z,3.40
2023-09-01T11:18:59.219Z,3.35
2023-09-01T11:20:00.703Z,3.20
2023-09-01T11:21:02.298Z,3.58
2023-09-01T11:22:03.931Z,3.47
2023-09-01T11:23:05.480Z,3.83
2023-09-01T11:24:07.744Z,3.83
2023-09-01T11:25:10.306Z,3.72
2023-09-01T11:26:11.894Z,3.80
2023-09-01T11:27:14.153Z,3.20
2023-09-01T11:28:16.048Z,3.58
2023-09-01T11:29:17.734Z,3.65
2023-09-01T11:30:20.168Z,3.67
2023-09-01T11:31:21.775Z,3.45
2023-09-01T11:32:29.794Z,3.83
2023-09-01T11:33:31.814Z,3.40
2023-09-01T11:34:39.484Z,3.28
2023-09-01T11:35:41.122Z,3.72
2023-09-01T11:36:46.529Z,3.47
2023-09-01T11:37:48.077Z,4.35
2023-09-01T11:38:50.192Z,3.30
2023-09-01T11:39:51.786Z,4.10
2023-09-01T11:40:53.736Z,3.47
2023-09-01T11:41:55.326Z,3.53
2023-09-01T11:42:57.031Z,4.00
2023-09-01T11:43:59.556Z,3.50
2023-09-01T11:45:03.288Z,3.85
2023-09-01T11:46:05.166Z,3.30
2023-09-01T11:47:13.108Z,3.47
2023-09-01T11:48:21.711Z,3.15
2023-09-01T11:49:23.341Z,3.65
2023-09-01T11:50:25.431Z,3.45
2023-09-01T11:51:33.646Z,3.75
2023-09-01T11:52:51.856Z,3.90
2023-09-01T11:53:53.499Z,3.65
2023-09-01T11:54:55.251Z,3.90
2023-09-01T11:55:57.695Z,3.70
2023-09-01T11:57:11.125Z,3.60
2023-09-01T11:58:12.987Z,3.60
2023-09-01T11:59:20.551Z,3.47
2023-09-01T12:00:35.692Z,3.80
2023-09-01T12:01:38.161Z,3.63
2023-09-01T12:02:40.341Z,3.88
2023-09-01T12:04:04.877Z,4.20
2023-09-01T12:05:06.579Z,3.20
2023-09-01T12:06:21.489Z,4.25
2023-09-01T12:07:27.211Z,3.50
2023-09-01T12:08:28.980Z,3.55
2023-09-01T12:09:30.787Z,3.60
2023-09-01T12:10:32.923Z,3.60
2023-09-01T12:11:34.563Z,3.42
2023-09-01T12:12:38.930Z,3.28
2023-09-01T12:13:40.993Z,5.82
2023-09-01T12:14:42.637Z,3.88
2023-09-01T12:16:00.448Z,3.70
2023-09-01T12:17:02.585Z,4.10
2023-09-01T12:18:23.309Z,3.88
2023-09-01T12:19:26.377Z,4.07
2023-09-01T12:20:28.030Z,3.10
2023-09-01T12:21:30.435Z,3.17
2023-09-01T12:22:32.076Z,3.45
2023-09-01T12:23:34.752Z,3.47
2023-09-01T12:24:36.360Z,8.35
2023-09-01T12:25:37.953Z,3.13
2023-09-01T12:26:39.623Z,4.00
2023-09-01T12:27:41.374Z,3.67
2023-09-01T12:28:44.006Z,3.70
2023-09-01T12:29:45.738Z,3.65
2023-09-01T12:30:47.534Z,5.93
2023-09-01T12:31:49.132Z,4.72
2023-09-01T12:32:50.734Z,3.92
2023-09-01T12:33:52.366Z,3.58
2023-09-01T12:34:54.847Z,3.25
2023-09-01T12:35:56.659Z,3.60
2023-09-01T12:36:58.191Z,3.90
2023-09-01T12:37:59.815Z,3.63
2023-09-01T12:39:01.368Z,4.00
2023-09-01T12:40:02.901Z,4.00
2023-09-01T12:41:04.456Z,4.47
2023-09-01T12:42:06.161Z,3.88
2023-09-01T12:43:07.746Z,3.58
2023-09-01T12:44:09.303Z,4.22
2023-09-01T12:45:11.215Z,4.22
2023-09-01T12:46:12.850Z,3.80
2023-09-01T12:47:14.468Z,3.47
2023-09-01T12:48:16.261Z,3.90
2023-09-01T12:49:17.881Z,3.40
2023-09-01T12:50:19.460Z,3.28
2023-09-01T12:51:21.120Z,4.03
2023-09-01T12:52:22.704Z,3.78
2023-09-01T12:53:24.220Z,4.28
2023-09-01T12:54:25.796Z,3.78
2023-09-01T12:55:27.697Z,3.50
2023-09-01T12:56:29.184Z,5.15
2023-09-01T12:57:30.716Z,5.28
2023-09-01T12:58:32.440Z,5.43
2023-09-01T12:59:34.068Z,6.85
2023-09-01T13:00:35.765Z,4.00
2023-09-01T13:01:37.402Z,4.20
2023-09-01T13:02:39.112Z,4.07
2023-09-01T13:03:40.801Z,7.93
2023-09-01T13:04:42.377Z,5.30
2023-09-01T13:05:43.924Z,5.55
2023-09-01T13:06:45.517Z,4.22
2023-09-01T13:07:47.445Z,5.50
2023-09-01T13:08:48.988Z,4.95
2023-09-01T13:09:50.812Z,4.78
2023-09-01T13:10:52.425Z,3.83
2023-09-01T13:11:54.020Z,4.07
2023-09-01T13:12:56.072Z,4.30
2023-09-01T13:13:57.643Z,4.13
2023-09-01T13:14:59.263Z,4.18
2023-09-01T13:16:00.774Z,3.95
2023-09-01T13:17:02.621Z,9.30
2023-09-01T13:18:04.513Z,10.30
2023-09-01T13:19:06.183Z,15.18
2023-09-01T13:20:08.101Z,9.55
2023-09-01T13:21:09.842Z,10.80
2023-09-01T13:22:11.439Z,10.30
2023-09-01T13:23:13.132Z,5.32
2023-09-01T13:24:15.123Z,6.35
2023-09-01T13:25:16.697Z,4.38
2023-09-01T13:26:18.236Z,4.63
2023-09-01T13:27:19.876Z,4.13
2023-09-01T13:28:21.809Z,3.90
2023-09-01T13:29:23.333Z,4.20
2023-09-01T13:30:24.972Z,4.00
2023-09-01T13:31:26.532Z,4.18
2023-09-01T13:32:28.326Z,4.53
2023-09-01T13:33:29.919Z,4.30
2023-09-01T13:34:31.549Z,4.28
2023-09-01T13:35:33.077Z,4.50
2023-09-01T13:36:34.792Z,3.85
2023-09-01T13:37:36.440Z,3.75
2023-09-01T13:38:38.105Z,4.32
2023-09-01T13:39:42.375Z,3.92
2023-09-01T13:40:44.064Z,3.95
2023-09-01T13:41:45.675Z,3.83
2023-09-01T13:42:47.331Z,4.10
2023-09-01T13:43:48.915Z,4.15
2023-09-01T13:44:57.384Z,3.88
2023-09-01T13:46:17.253Z,4.20
2023-09-01T13:47:18.885Z,4.07
2023-09-01T13:48:20.551Z,4.03
2023-09-01T13:49:22.169Z,4.50
2023-09-01T13:50:23.952Z,4.22
2023-09-01T13:51:25.951Z,4.00
2023-09-01T13:52:27.476Z,3.65
2023-09-01T13:53:29.180Z,4.70
2023-09-01T13:54:30.726Z,4.25
2023-09-01T13:55:32.426Z,4.32
2023-09-01T13:56:34.047Z,4.57
2023-09-01T13:57:35.634Z,3.83
2023-09-01T13:58:37.423Z,3.90
2023-09-01T13:59:39.271Z,4.03
2023-09-01T14:00:40.923Z,3.97